Time;durP1;ratioP1;P1;durP2;ratioP2;P2;SDS_P1;SDS_P2;PMS_P1;PMS_P2;Temp;Humidity;BMP_temperature;BMP_pressure;BME280_temperature;BME280_humidity;BME280_pressure;Samples;Min_cycle;Max_cycle;Signal;HPM_P1;HPM_P2
2020/12/10 00:00:43;;;;;;;19.80;11.53;;;3.20;85.40;;;;;;6270852;28;20045;-74
2020/12/10 00:03:46;;;;;;;17.30;12.10;;;3.20;85.40;;;;;;6271015;28;20541;-74
2020/12/10 00:06:48;;;;;;;23.83;14.87;;;3.20;85.40;;;;;;6279022;28;20048;-74
2020/12/10 00:09:50;;;;;;;21.97;14.13;;;3.10;85.20;;;;;;6274351;28;20127;-75
2020/12/10 00:12:52;;;;;;;19.67;13.43;;;3.10;85.30;;;;;;6271878;28;20171;-74
2020/12/10 00:15:53;;;;;;;21.00;13.90;;;3.10;85.30;;;;;;6271564;28;20049;-75
2020/12/10 00:18:54;;;;;;;23.23;16.57;;;3.10;85.40;;;;;;6270325;28;20045;-74
2020/12/10 00:21:56;;;;;;;23.90;16.03;;;3.10;85.60;;;;;;6271685;28;20124;-75
2020/12/10 00:24:58;;;;;;;20.73;12.13;;;3.10;85.50;;;;;;6270804;28;20049;-75
2020/12/10 00:27:59;;;;;;;21.73;14.67;;;3.10;85.50;;;;;;6270854;28;20045;-75
2020/12/10 00:31:00;;;;;;;21.60;14.77;;;3.10;85.30;;;;;;6270276;28;20048;-75
2020/12/10 00:34:02;;;;;;;19.73;15.07;;;3.10;85.40;;;;;;6271326;28;20160;-74
2020/12/10 00:37:03;;;;;;;26.20;14.03;;;3.00;85.40;;;;;;6270177;28;20049;-75
2020/12/10 00:40:08;;;;;;;19.13;12.90;;;3.10;85.60;;;;;;6270650;28;20041;-74
2020/12/10 00:43:09;;;;;;;21.63;14.27;;;3.00;85.70;;;;;;6270291;28;20236;-74
2020/12/10 00:46:10;;;;;;;22.07;14.23;;;3.00;85.80;;;;;;6271537;28;20049;-74
2020/12/10 00:49:12;;;;;;;22.03;13.63;;;3.10;85.80;;;;;;6269617;28;20202;-74
2020/12/10 00:52:14;;;;;;;21.03;15.57;;;3.10;85.80;;;;;;6270061;28;20648;-75
2020/12/10 00:55:16;;;;;;;20.83;15.07;;;3.10;85.70;;;;;;6270787;28;20045;-74
2020/12/10 00:58:18;;;;;;;24.37;14.23;;;3.10;85.80;;;;;;6270979;28;20056;-75
2020/12/10 01:01:19;;;;;;;21.83;14.70;;;3.10;85.70;;;;;;6275036;28;20045;-75
2020/12/10 01:04:20;;;;;;;21.27;13.10;;;3.10;85.70;;;;;;6275467;28;20167;-75
2020/12/10 01:07:22;;;;;;;25.03;15.47;;;3.10;85.60;;;;;;6274573;28;20610;-74
2020/12/10 01:10:24;;;;;;;22.90;16.17;;;3.10;85.50;;;;;;6275167;28;20136;-75
2020/12/10 01:13:25;;;;;;;21.90;14.00;;;3.10;85.60;;;;;;6272360;28;20190;-75
2020/12/10 01:16:27;;;;;;;23.50;16.23;;;3.10;85.40;;;;;;6274834;28;20417;-75
2020/12/10 01:19:28;;;;;;;22.20;14.47;;;3.10;85.40;;;;;;6274644;28;20178;-74
2020/12/10 01:22:30;;;;;;;27.43;16.17;;;3.10;85.40;;;;;;6275651;28;20049;-74
2020/12/10 01:25:32;;;;;;;21.90;14.03;;;3.10;85.50;;;;;;6274859;28;20128;-74
2020/12/10 01:28:33;;;;;;;20.70;13.23;;;3.10;85.70;;;;;;6273828;28;20045;-75
2020/12/10 01:31:34;;;;;;;25.37;14.93;;;3.10;85.90;;;;;;6274448;28;20051;-75
2020/12/10 01:34:36;;;;;;;23.33;13.10;;;3.10;86.10;;;;;;6274552;28;20049;-75
2020/12/10 01:37:37;;;;;;;22.20;13.73;;;3.10;86.40;;;;;;6274226;28;20207;-75
2020/12/10 01:40:39;;;;;;;21.27;15.27;;;3.10;86.60;;;;;;6274116;28;20111;-74
2020/12/10 01:43:41;;;;;;;19.07;12.20;;;3.00;86.70;;;;;;6274054;28;20103;-75
2020/12/10 01:46:43;;;;;;;18.63;11.20;;;3.00;86.70;;;;;;6273437;28;20186;-74
2020/12/10 01:49:44;;;;;;;22.40;12.97;;;3.00;86.70;;;;;;6274080;28;20528;-74
2020/12/10 01:52:46;;;;;;;23.93;14.23;;;3.00;86.60;;;;;;6273602;28;20055;-75
2020/12/10 01:55:48;;;;;;;23.23;14.30;;;3.00;86.60;;;;;;6273780;28;20098;-75
2020/12/10 01:58:49;;;;;;;29.23;14.90;;;3.10;86.70;;;;;;6273218;28;20048;-75
2020/12/10 02:01:51;;;;;;;22.10;14.07;;;3.00;86.40;;;;;;6274351;28;20049;-75
2020/12/10 02:04:52;;;;;;;19.73;14.10;;;3.10;86.60;;;;;;6273473;28;20143;-75
2020/12/10 02:07:53;;;;;;;27.20;14.07;;;3.10;86.60;;;;;;6273226;28;20041;-74
2020/12/10 02:10:56;;;;;;;25.43;15.67;;;3.10;86.60;;;;;;6272931;28;20450;-75
2020/12/10 02:13:57;;;;;;;19.90;13.00;;;3.10;86.60;;;;;;6273583;28;20053;-75
2020/12/10 02:16:59;;;;;;;23.53;12.63;;;3.20;86.80;;;;;;6273361;28;20102;-75
2020/12/10 02:20:00;;;;;;;17.70;13.10;;;3.10;86.90;;;;;;6273905;28;20088;-75
2020/12/10 02:23:03;;;;;;;20.50;12.87;;;3.10;87.20;;;;;;6273180;28;20041;-74
2020/12/10 02:26:05;;;;;;;25.00;14.47;;;3.10;87.20;;;;;;6273807;28;20139;-75
2020/12/10 02:29:07;;;;;;;19.13;13.70;;;3.10;87.20;;;;;;6272867;28;20558;-74
2020/12/10 02:32:09;;;;;;;22.47;14.70;;;3.10;87.40;;;;;;6273346;28;20067;-75
2020/12/10 02:35:10;;;;;;;22.93;12.30;;;3.10;87.60;;;;;;6273402;28;20068;-75
2020/12/10 02:38:13;;;;;;;21.13;11.83;;;3.10;87.80;;;;;;6273356;28;20545;-75
2020/12/10 02:41:14;;;;;;;21.03;12.07;;;3.10;88.10;;;;;;6272492;28;20041;-74
2020/12/10 02:44:16;;;;;;;21.63;13.30;;;3.10;88.20;;;;;;6272816;28;20055;-75
2020/12/10 02:47:17;;;;;;;18.83;13.10;;;3.10;88.50;;;;;;6272380;28;20171;-75
2020/12/10 02:50:19;;;;;;;23.37;15.17;;;3.10;88.70;;;;;;6272749;28;20056;-74
2020/12/10 02:53:21;;;;;;;18.67;11.57;;;3.10;89.00;;;;;;6272448;28;20045;-75
2020/12/10 02:56:22;;;;;;;20.90;12.33;;;3.10;89.20;;;;;;6272626;28;20439;-75
2020/12/10 02:59:24;;;;;;;26.77;14.23;;;3.00;89.30;;;;;;6270583;22;20712;-73
2020/12/10 03:02:25;;;;;;;19.63;12.33;;;3.00;89.50;;;;;;6246851;28;20103;-73
2020/12/10 03:05:26;;;;;;;18.33;12.37;;;2.90;89.50;;;;;;6246247;28;20046;-73
2020/12/10 03:08:29;;;;;;;21.23;13.37;;;2.90;89.60;;;;;;6245399;28;20621;-73
2020/12/10 03:11:30;;;;;;;17.87;11.97;;;2.90;89.70;;;;;;6246083;28;20049;-73
2020/12/10 03:14:31;;;;;;;22.73;12.83;;;2.90;89.80;;;;;;6246484;28;20057;-73
2020/12/10 03:17:32;;;;;;;24.93;14.70;;;2.90;89.90;;;;;;6245685;28;20049;-73
2020/12/10 03:20:34;;;;;;;19.37;12.60;;;2.90;90.00;;;;;;6245734;28;20128;-73
2020/12/10 03:23:36;;;;;;;19.97;12.83;;;2.90;90.10;;;;;;6245395;28;20042;-73
2020/12/10 03:26:37;;;;;;;22.10;12.27;;;2.90;90.10;;;;;;6245278;28;20058;-73
2020/12/10 03:29:39;;;;;;;22.63;13.67;;;2.90;90.10;;;;;;6243877;28;20075;-73
2020/12/10 03:32:40;;;;;;;21.57;14.20;;;2.90;90.20;;;;;;6246015;28;20041;-73
2020/12/10 03:35:42;;;;;;;19.53;13.23;;;2.90;90.10;;;;;;6245773;28;20060;-73
2020/12/10 03:38:44;;;;;;;16.87;11.97;;;2.90;90.10;;;;;;6245087;28;20049;-73
2020/12/10 03:41:46;;;;;;;20.43;12.30;;;2.90;90.20;;;;;;6245970;28;20454;-73
2020/12/10 03:44:47;;;;;;;19.17;13.17;;;2.90;90.20;;;;;;6245293;28;20061;-73
2020/12/10 03:47:49;;;;;;;23.00;16.30;;;2.90;90.20;;;;;;6245091;28;20130;-73
2020/12/10 03:50:50;;;;;;;19.63;13.90;;;2.90;90.20;;;;;;6245266;28;20064;-73
2020/12/10 03:53:52;;;;;;;24.40;14.67;;;2.90;90.30;;;;;;6245682;28;20054;-73
2020/12/10 03:56:54;;;;;;;27.00;13.87;;;2.90;90.20;;;;;;6245056;28;20049;-73
2020/12/10 03:59:55;;;;;;;20.03;13.33;;;3.00;90.10;;;;;;6244651;28;20060;-72
2020/12/10 04:02:56;;;;;;;21.03;13.93;;;3.00;90.10;;;;;;6245224;28;20131;-72
2020/12/10 04:05:57;;;;;;;18.40;12.93;;;2.90;90.00;;;;;;6245785;28;20045;-73
2020/12/10 04:09:00;;;;;;;16.57;12.63;;;3.00;90.10;;;;;;6243827;28;20187;-73
2020/12/10 04:12:01;;;;;;;18.53;12.13;;;3.00;90.30;;;;;;6244884;28;20045;-73
2020/12/10 04:15:03;;;;;;;21.63;12.60;;;2.90;90.30;;;;;;6244761;28;20047;-73
2020/12/10 04:18:04;;;;;;;22.50;14.40;;;2.90;90.30;;;;;;6244497;28;20132;-73
2020/12/10 04:21:06;;;;;;;20.30;13.73;;;2.90;90.20;;;;;;6244826;28;20052;-73
2020/12/10 04:24:08;;;;;;;16.90;12.37;;;2.90;90.20;;;;;;6244766;28;20046;-73
2020/12/10 04:27:09;;;;;;;17.30;12.10;;;2.80;90.30;;;;;;6244303;28;20056;-73
2020/12/10 04:30:11;;;;;;;20.03;12.87;;;2.90;90.30;;;;;;6244571;28;20060;-73
2020/12/10 04:33:12;;;;;;;19.00;12.10;;;2.90;90.30;;;;;;6245019;28;20445;-73
2020/12/10 04:36:14;;;;;;;20.07;15.03;;;2.90;90.30;;;;;;6249500;28;20049;-73
2020/12/10 04:39:16;;;;;;;20.23;13.57;;;2.90;90.30;;;;;;6249585;28;20049;-73
2020/12/10 04:42:19;;;;;;;20.20;13.13;;;2.90;90.30;;;;;;6250239;28;20107;-72
2020/12/10 04:45:20;;;;;;;20.70;13.70;;;2.90;90.20;;;;;;6249261;28;20128;-72
2020/12/10 04:48:22;;;;;;;19.83;11.43;;;2.90;90.10;;;;;;6248929;28;20045;-73
2020/12/10 04:51:24;;;;;;;19.03;12.23;;;3.00;90.00;;;;;;6249424;28;20046;-73
2020/12/10 04:54:27;;;;;;;23.20;13.73;;;3.00;89.80;;;;;;6249787;28;20049;-73
2020/12/10 04:57:30;;;;;;;21.83;13.60;;;3.00;89.80;;;;;;6248928;28;20050;-73
2020/12/10 05:00:31;;;;;;;19.70;11.60;;;3.00;89.70;;;;;;6248806;28;20049;-73
2020/12/10 05:03:32;;;;;;;18.97;13.37;;;3.00;89.80;;;;;;6249477;28;20056;-73
2020/12/10 05:06:34;;;;;;;19.80;15.40;;;2.90;89.60;;;;;;6248910;28;20555;-73
2020/12/10 05:09:36;;;;;;;15.43;11.40;;;2.90;89.90;;;;;;6249105;28;20140;-73
2020/12/10 05:12:37;;;;;;;19.53;13.20;;;2.80;90.10;;;;;;6249525;28;20045;-73
2020/12/10 05:15:40;;;;;;;17.07;11.73;;;2.80;90.20;;;;;;6248917;28;20112;-73
2020/12/10 05:18:41;;;;;;;16.83;13.33;;;2.80;90.30;;;;;;6248255;28;20045;-73
2020/12/10 05:21:43;;;;;;;18.37;14.23;;;2.80;90.20;;;;;;6249163;28;20057;-73
2020/12/10 05:24:45;;;;;;;19.50;13.23;;;2.90;90.20;;;;;;6248177;28;20205;-73
2020/12/10 05:27:59;;;;;;;22.17;14.00;;;2.90;90.10;;;;;;6248303;28;20136;-73
2020/12/10 05:31:02;;;;;;;21.37;13.57;;;2.90;90.10;;;;;;6248309;28;20041;-73
2020/12/10 05:34:03;;;;;;;20.83;12.23;;;2.90;90.10;;;;;;6249015;28;20128;-73
2020/12/10 05:37:05;;;;;;;21.40;13.47;;;2.90;90.10;;;;;;6248069;28;20045;-73
2020/12/10 05:40:07;;;;;;;22.30;13.43;;;2.90;90.00;;;;;;6247737;28;20135;-73
2020/12/10 05:43:22;;;;;;;25.03;14.93;;;2.90;89.60;;;;;;6248338;28;20046;-73
2020/12/10 05:46:25;;;;;;;24.23;14.83;;;2.90;89.50;;;;;;6247791;28;20065;-72
2020/12/10 05:49:26;;;;;;;24.17;14.07;;;3.00;89.50;;;;;;6247653;28;20128;-73
2020/12/10 05:52:33;;;;;;;19.60;12.13;;;3.00;89.40;;;;;;6247726;28;20069;-73
2020/12/10 05:55:36;;;;;;;18.27;12.97;;;3.00;89.30;;;;;;6248100;28;20041;-73
2020/12/10 05:58:50;;;;;;;18.17;13.57;;;2.90;89.00;;;;;;6247266;28;20271;-73
2020/12/10 06:01:52;;;;;;;19.13;12.03;;;2.90;89.00;;;;;;6248447;28;20046;-73
2020/12/10 06:04:54;;;;;;;24.10;13.90;;;2.90;89.10;;;;;;6247399;28;20623;-73
2020/12/10 06:08:06;;;;;;;17.27;12.23;;;2.90;89.20;;;;;;6246515;28;20140;-73
2020/12/10 06:11:16;;;;;;;25.23;14.80;;;2.90;89.30;;;;;;6247157;28;20168;-73
2020/12/10 06:14:17;;;;;;;23.97;13.33;;;2.80;89.10;;;;;;6247706;28;20050;-73
2020/12/10 06:17:19;;;;;;;22.60;13.90;;;2.80;89.40;;;;;;6246988;28;20099;-73
2020/12/10 06:20:35;;;;;;;22.80;13.80;;;2.80;89.60;;;;;;6246626;28;20049;-73
2020/12/10 06:23:38;;;;;;;17.43;12.27;;;2.80;89.80;;;;;;6247063;28;20053;-73
2020/12/10 06:26:41;;;;;;;19.00;12.63;;;2.70;89.80;;;;;;6247006;28;20628;-73
2020/12/10 06:29:43;;;;;;;17.13;11.63;;;2.70;90.00;;;;;;6247712;28;20418;-73
2020/12/10 06:32:48;;;;;;;22.93;13.83;;;2.70;90.00;;;;;;6247002;28;20041;-73
2020/12/10 06:35:50;;;;;;;20.33;13.23;;;2.80;90.10;;;;;;6247518;28;20125;-73
2020/12/10 06:38:52;;;;;;;17.70;11.37;;;2.80;89.80;;;;;;6246312;28;20180;-73
2020/12/10 06:42:09;;;;;;;22.17;14.33;;;2.90;90.00;;;;;;6247611;28;20045;-73
2020/12/10 06:45:28;;;;;;;24.20;13.63;;;2.90;90.10;;;;;;6246194;28;20276;-73
2020/12/10 06:48:39;;;;;;;17.50;12.30;;;3.00;90.00;;;;;;6245850;28;20529;-73
2020/12/10 06:51:40;;;;;;;16.50;12.50;;;3.00;90.00;;;;;;6246760;28;20041;-73
2020/12/10 06:55:07;;;;;;;17.63;11.87;;;3.00;89.60;;;;;;6246378;28;20190;-73
2020/12/10 06:58:13;;;;;;;17.23;11.17;;;3.00;88.50;;;;;;6245262;28;20132;-73
2020/12/10 07:01:19;;;;;;;15.77;11.37;;;3.00;88.10;;;;;;6246163;28;20503;-73
2020/12/10 07:04:31;;;;;;;16.67;11.73;;;2.90;87.50;;;;;;6234991;28;20591;-73
2020/12/10 07:07:33;;;;;;;17.93;12.10;;;2.90;87.50;;;;;;6229396;28;20416;-73
2020/12/10 07:10:39;;;;;;;15.43;10.83;;;2.90;88.00;;;;;;6240776;28;20467;-73
2020/12/10 07:13:41;;;;;;;25.03;12.60;;;2.90;88.10;;;;;;6236223;28;20049;-73
2020/12/10 07:16:42;;;;;;;17.03;11.47;;;2.90;88.30;;;;;;6220969;28;20180;-73
2020/12/10 07:19:44;;;;;;;14.90;10.27;;;2.90;88.30;;;;;;6221081;28;20498;-72
2020/12/10 07:22:46;;;;;;;18.30;12.13;;;2.90;88.40;;;;;;6235329;28;20057;-73
2020/12/10 07:25:47;;;;;;;21.37;13.03;;;2.90;88.30;;;;;;6245965;28;20132;-73
2020/12/10 07:28:52;;;;;;;20.90;12.47;;;2.90;87.90;;;;;;6244781;28;20132;-72
2020/12/10 07:31:53;;;;;;;19.27;10.60;;;2.90;87.90;;;;;;6245997;28;20045;-73
2020/12/10 07:34:55;;;;;;;18.57;13.43;;;3.00;88.00;;;;;;6245643;28;20132;-73
2020/12/10 07:38:06;;;;;;;19.60;12.73;;;3.00;87.90;;;;;;6245552;28;20149;-72
2020/12/10 07:41:09;;;;;;;16.03;11.00;;;3.10;87.60;;;;;;6220621;28;20523;-73
2020/12/10 07:44:11;;;;;;;24.07;13.60;;;3.00;87.30;;;;;;6220879;28;20071;-73
2020/12/10 07:47:13;;;;;;;19.03;13.00;;;3.00;86.90;;;;;;6220577;28;20053;-72
2020/12/10 07:50:21;;;;;;;14.37;10.00;;;3.00;87.00;;;;;;6220916;28;20619;-73
2020/12/10 07:53:22;;;;;;;15.45;10.30;;;3.00;86.90;;;;;;6220663;28;20050;-73
2020/12/10 07:56:27;;;;;;;17.53;11.73;;;3.10;87.00;;;;;;6220460;28;20123;-72
2020/12/10 07:59:31;;;;;;;16.77;12.53;;;3.20;85.80;;;;;;6220044;28;20124;-73
2020/12/10 08:02:46;;;;;;;18.40;12.33;;;3.10;85.80;;;;;;6221298;28;20057;-73
2020/12/10 08:06:03;;;;;;;15.77;11.60;;;3.20;85.60;;;;;;6220581;28;20045;-72
2020/12/10 08:09:08;;;;;;;21.50;12.77;;;3.20;85.30;;;;;;6219451;28;20422;-73
2020/12/10 08:12:14;;;;;;;15.97;9.87;;;3.10;85.10;;;;;;6220208;28;20042;-72
2020/12/10 08:15:21;;;;;;;14.87;11.83;;;3.20;86.00;;;;;;6220427;28;20748;-72
2020/12/10 08:18:22;;;;;;;15.10;10.07;;;3.20;85.20;;;;;;6220097;28;20133;-73
2020/12/10 08:21:31;;;;;;;18.87;11.10;;;3.30;85.40;;;;;;6220340;28;20084;-71
2020/12/10 08:24:35;;;;;;;;;;;3.40;85.20;;;;;;6220002;28;20077;-71
2020/12/10 08:27:37;;;;;;;18.77;12.47;;;3.30;84.60;;;;;;6219633;28;20578;-71
2020/12/10 08:30:50;;;;;;;19.43;11.67;;;3.30;84.60;;;;;;6219793;28;20060;-72
2020/12/10 08:33:52;;;;;;;20.57;11.43;;;3.30;84.80;;;;;;6220911;28;20518;-72
2020/12/10 08:37:02;;;;;;;16.27;12.33;;;3.30;84.60;;;;;;6220275;28;20123;-72
2020/12/10 08:40:04;;;;;;;16.37;12.23;;;3.30;84.50;;;;;;6220234;28;20053;-71
2020/12/10 08:43:10;;;;;;;16.07;10.57;;;3.20;84.20;;;;;;6220333;28;20038;-72
2020/12/10 08:46:15;;;;;;;16.23;11.33;;;3.20;84.10;;;;;;6220177;28;20415;-72
2020/12/10 08:49:17;;;;;;;16.33;9.77;;;3.30;84.10;;;;;;6219628;28;20046;-72
2020/12/10 08:52:22;;;;;;;16.53;12.30;;;3.30;84.10;;;;;;6219503;28;20655;-72
2020/12/10 08:55:23;;;;;;;15.97;10.53;;;3.40;83.70;;;;;;6219607;28;20142;-72
2020/12/10 09:01:28;;;;;;;17.63;11.17;;;3.50;83.20;;;;;;6264295;23;20042;-75
2020/12/10 09:04:29;;;;;;;14.80;9.13;;;3.60;83.20;;;;;;6245738;28;20053;-75
2020/12/10 09:07:30;;;;;;;16.93;11.77;;;3.60;83.00;;;;;;6245201;28;20061;-74
2020/12/10 09:10:32;;;;;;;15.50;11.52;;;3.70;82.50;;;;;;6246091;28;20136;-75
2020/12/10 09:13:33;;;;;;;15.70;10.07;;;3.70;82.20;;;;;;6234497;28;20052;-75
2020/12/10 09:16:35;;;;;;;22.17;12.67;;;3.60;82.50;;;;;;6221118;28;20084;-75
2020/12/10 09:19:36;;;;;;;18.83;12.27;;;3.70;82.70;;;;;;6214206;28;20527;-74
2020/12/10 09:22:38;;;;;;;19.38;13.25;;;3.80;82.20;;;;;;6201108;28;20046;-74
2020/12/10 09:25:40;;;;;;;14.98;11.55;;;3.80;82.40;;;;;;6200889;28;20057;-75
2020/12/10 09:28:41;;;;;;;17.13;12.82;;;3.80;81.90;;;;;;6200708;28;20100;-75
2020/12/10 09:31:43;;;;;;;19.25;12.02;;;3.80;82.00;;;;;;6209476;28;20579;-75
2020/12/10 09:34:45;;;;;;;16.05;11.52;;;3.80;81.80;;;;;;6225283;28;20188;-75
2020/12/10 09:37:46;;;;;;;22.63;12.33;;;3.80;82.10;;;;;;6225361;28;20524;-75
2020/12/10 09:40:48;;;;;;;20.92;12.93;;;3.80;81.70;;;;;;6224434;28;20129;-75
2020/12/10 09:43:49;;;;;;;18.02;12.70;;;3.80;81.40;;;;;;6224732;28;20056;-75
2020/12/10 09:46:51;;;;;;;26.25;15.98;;;3.80;81.70;;;;;;6224623;28;20449;-75
2020/12/10 09:49:52;;;;;;;22.98;15.32;;;3.90;81.70;;;;;;6224509;28;20133;-75
2020/12/10 09:53:02;;;;;;;19.10;13.13;;;3.80;81.40;;;;;;6224862;28;20515;-74
2020/12/10 09:59:23;;;;;;;;;;;3.90;81.30;;;;;;6224962;28;20518;-75
2020/12/10 10:02:26;;;;;;;21.77;12.63;;;3.90;81.10;;;;;;6223720;28;19921;-75
2020/12/10 10:05:27;;;;;;;17.40;12.20;;;3.90;81.20;;;;;;6222888;28;20057;-75
2020/12/10 10:08:30;;;;;;;24.77;13.15;;;4.00;81.20;;;;;;6222576;28;20061;-75
2020/12/10 10:11:32;;;;;;;21.33;12.63;;;4.10;81.40;;;;;;6222983;28;20046;-75
2020/12/10 10:14:33;;;;;;;16.85;11.98;;;4.20;80.90;;;;;;6204823;28;20093;-75
2020/12/10 10:17:36;;;;;;;18.92;12.80;;;4.20;80.40;;;;;;6223263;28;20526;-75
2020/12/10 10:20:38;;;;;;;17.20;11.25;;;4.30;80.20;;;;;;6206433;28;20057;-75
2020/12/10 10:23:39;;;;;;;16.77;11.60;;;4.30;80.50;;;;;;6198627;28;20047;-75
2020/12/10 10:26:41;;;;;;;15.25;11.70;;;4.40;80.30;;;;;;6199867;28;20062;-74
2020/12/10 10:29:42;;;;;;;18.83;11.70;;;4.50;79.90;;;;;;6223032;28;20115;-75
2020/12/10 10:32:45;;;;;;;14.65;10.48;;;4.60;79.60;;;;;;6223006;28;20038;-75
2020/12/10 10:35:47;;;;;;;26.30;12.05;;;4.70;79.30;;;;;;6222437;28;20049;-75
2020/12/10 10:38:49;;;;;;;16.75;12.20;;;4.70;78.40;;;;;;6221780;28;20500;-75
2020/12/10 10:41:50;;;;;;;17.63;12.13;;;4.70;79.60;;;;;;6222313;28;20119;-75
2020/12/10 10:44:52;;;;;;;21.58;14.38;;;4.80;80.50;;;;;;6221894;28;20053;-75
2020/12/10 10:47:54;;;;;;;14.38;10.63;;;5.00;80.90;;;;;;6221734;28;20041;-76
2020/12/10 10:50:55;;;;;;;19.70;13.63;;;5.20;79.00;;;;;;6222486;28;20125;-75
2020/12/10 10:53:57;;;;;;;18.63;11.52;;;5.20;78.70;;;;;;6222167;28;20133;-74
2020/12/10 10:56:59;;;;;;;20.35;11.90;;;5.30;78.90;;;;;;6221062;28;20537;-75
2020/12/10 11:00:00;;;;;;;15.63;11.38;;;5.30;78.00;;;;;;6204714;28;536879;-75
2020/12/10 11:03:03;;;;;;;19.10;12.38;;;5.40;78.70;;;;;;6223701;28;20046;-75
2020/12/10 11:06:05;;;;;;;21.77;12.65;;;5.50;77.50;;;;;;6223812;28;20100;-75
2020/12/10 11:09:06;;;;;;;19.50;12.48;;;5.50;76.60;;;;;;6223291;28;20080;-75
2020/12/10 11:12:07;;;;;;;22.27;12.93;;;5.50;76.50;;;;;;6223408;28;20188;-75
2020/12/10 11:15:09;;;;;;;24.95;13.45;;;5.40;76.20;;;;;;6203711;28;20415;-75
2020/12/10 11:18:11;;;;;;;19.15;12.70;;;5.40;76.50;;;;;;6223244;28;20157;-75
2020/12/10 11:21:13;;;;;;;19.20;13.57;;;5.40;76.60;;;;;;6222454;28;20176;-75
2020/12/10 11:24:14;;;;;;;192.27;86.03;;;5.30;77.40;;;;;;6222438;28;20045;-75
2020/12/10 11:27:15;;;;;;;61.20;32.10;;;5.40;78.30;;;;;;6222679;28;20415;-75
2020/12/10 11:30:17;;;;;;;32.40;18.63;;;5.40;78.50;;;;;;6222663;28;20149;-74
2020/12/10 11:33:19;;;;;;;28.52;16.20;;;5.50;78.50;;;;;;6222323;28;20049;-75
2020/12/10 11:36:20;;;;;;;16.70;11.77;;;5.50;78.30;;;;;;6221974;28;20128;-75
2020/12/10 11:39:21;;;;;;;19.65;13.05;;;5.60;77.30;;;;;;6222144;28;20137;-75
2020/12/10 11:42:23;;;;;;;25.02;14.48;;;5.60;77.50;;;;;;6222279;28;20042;-74
2020/12/10 11:45:24;;;;;;;21.60;13.88;;;5.50;77.10;;;;;;6222779;28;20129;-75
2020/12/10 11:48:26;;;;;;;19.27;11.50;;;5.50;77.60;;;;;;6221782;28;20069;-75
2020/12/10 11:51:31;;;;;;;19.25;12.52;;;5.50;76.40;;;;;;6221949;28;20069;-75
2020/12/10 11:54:33;;;;;;;18.00;12.90;;;5.50;76.40;;;;;;6222678;28;20049;-75
2020/12/10 11:57:35;;;;;;;21.30;12.68;;;5.40;76.30;;;;;;6222442;28;20054;-75
2020/12/10 12:00:37;;;;;;;20.92;13.30;;;5.30;76.30;;;;;;6222631;28;20042;-75
2020/12/10 12:03:39;;;;;;;17.92;13.40;;;5.40;76.40;;;;;;6222883;28;20052;-75
2020/12/10 12:06:41;;;;;;;22.33;14.35;;;5.30;76.30;;;;;;6222358;28;20490;-75
2020/12/10 12:09:42;;;;;;;19.48;13.10;;;5.30;76.20;;;;;;6222864;28;20053;-75
2020/12/10 12:12:44;;;;;;;23.13;15.80;;;5.30;76.50;;;;;;6217775;28;20073;-75
2020/12/10 12:15:46;;;;;;;21.08;13.85;;;5.30;76.60;;;;;;6207675;28;20069;-74
2020/12/10 12:18:49;;;;;;;21.83;12.95;;;5.30;76.60;;;;;;6221934;28;20049;-75
2020/12/10 12:21:50;;;;;;;24.55;15.45;;;5.30;76.50;;;;;;6222321;28;20103;-75
2020/12/10 12:24:52;;;;;;;22.92;13.32;;;5.20;76.90;;;;;;6222109;28;20046;-74
2020/12/10 12:27:53;;;;;;;20.63;13.77;;;5.10;77.40;;;;;;6221889;28;20049;-74
2020/12/10 12:30:54;;;;;;;22.38;15.40;;;5.20;77.40;;;;;;6223024;28;20054;-76
2020/12/10 12:33:57;;;;;;;20.58;14.20;;;5.30;77.20;;;;;;6223389;28;20077;-75
2020/12/10 12:36:58;;;;;;;23.52;14.02;;;5.20;77.10;;;;;;6221174;28;20523;-74
2020/12/10 12:39:59;;;;;;;25.40;16.00;;;5.30;77.30;;;;;;6202047;28;20050;-75
2020/12/10 12:43:01;;;;;;;24.02;14.95;;;5.20;76.80;;;;;;6211948;28;20041;-75
2020/12/10 12:46:02;;;;;;;25.13;15.55;;;5.10;77.20;;;;;;6205336;28;20061;-76
2020/12/10 12:49:04;;;;;;;29.27;14.82;;;5.10;77.50;;;;;;6209017;28;20038;-75
2020/12/10 12:52:06;;;;;;;27.40;15.98;;;5.10;77.60;;;;;;6212722;28;20054;-77
2020/12/10 12:55:07;;;;;;;22.80;13.95;;;5.20;77.50;;;;;;6218254;28;20048;-74
2020/12/10 12:58:08;;;;;;;23.45;16.38;;;5.20;77.60;;;;;;6217571;28;20045;-74
2020/12/10 13:01:09;;;;;;;25.02;15.70;;;5.20;77.40;;;;;;6217967;28;20085;-73
2020/12/10 13:04:14;;;;;;;23.02;15.63;;;5.20;77.30;;;;;;6211013;28;20046;-74
2020/12/10 13:07:15;;;;;;;24.50;15.27;;;5.30;77.50;;;;;;6220867;28;20700;-74
2020/12/10 13:10:16;;;;;;;28.88;15.65;;;5.30;77.20;;;;;;6216854;28;20411;-74
2020/12/10 13:13:19;;;;;;;20.92;12.98;;;5.20;77.20;;;;;;6221234;28;20041;-74
2020/12/10 13:16:21;;;;;;;20.48;13.15;;;5.20;77.10;;;;;;6210818;28;20065;-75
2020/12/10 13:19:23;;;;;;;24.33;14.77;;;5.30;77.30;;;;;;6217275;28;20038;-75
2020/12/10 13:22:24;;;;;;;21.80;14.25;;;5.20;77.10;;;;;;6211181;28;20051;-76
2020/12/10 13:25:26;;;;;;;23.48;14.10;;;5.20;77.10;;;;;;6217536;28;20530;-75
2020/12/10 13:28:27;;;;;;;23.15;15.07;;;5.10;76.90;;;;;;6216556;28;20112;-74
2020/12/10 13:31:30;;;;;;;21.70;14.73;;;5.10;77.00;;;;;;6219865;28;20038;-74
2020/12/10 13:34:32;;;;;;;26.70;16.65;;;5.10;77.30;;;;;;6217761;28;20041;-74
2020/12/10 13:37:34;;;;;;;20.50;14.63;;;5.10;77.30;;;;;;6221617;28;20046;-74
2020/12/10 13:40:36;;;;;;;24.08;15.20;;;5.10;77.30;;;;;;6217259;28;20046;-76
2020/12/10 13:43:37;;;;;;;25.35;14.80;;;5.10;77.20;;;;;;6211066;28;20054;-75
2020/12/10 13:46:39;;;;;;;22.95;14.75;;;5.10;77.20;;;;;;6217390;28;20493;-76
2020/12/10 13:49:41;;;;;;;25.20;14.98;;;5.10;77.20;;;;;;6214872;28;20532;-76
2020/12/10 13:52:42;;;;;;;44.83;28.80;;;5.10;77.20;;;;;;6214385;28;20044;-76
2020/12/10 13:55:44;;;;;;;34.00;25.00;;;5.10;77.50;;;;;;6221800;28;20136;-74
2020/12/10 13:58:45;;;;;;;25.10;14.48;;;5.10;77.50;;;;;;6210775;28;20051;-75
2020/12/10 14:01:47;;;;;;;21.25;13.35;;;5.10;77.40;;;;;;6217158;28;20046;-75
2020/12/10 14:04:49;;;;;;;22.27;18.45;;;5.10;77.30;;;;;;6217228;28;20539;-75
2020/12/10 14:07:50;;;;;;;23.65;15.55;;;5.00;77.60;;;;;;6213418;28;20500;-75
2020/12/10 14:10:51;;;;;;;26.98;15.57;;;5.00;77.70;;;;;;6218950;28;20050;-74
2020/12/10 14:13:53;;;;;;;24.48;15.02;;;5.00;77.70;;;;;;6223036;28;20046;-77
2020/12/10 14:16:54;;;;;;;21.30;13.35;;;5.10;77.70;;;;;;6222077;28;20060;-75
2020/12/10 14:19:57;;;;;;;20.23;15.15;;;5.10;77.70;;;;;;6227381;28;20093;-75
2020/12/10 14:22:58;;;;;;;25.35;14.77;;;5.10;77.60;;;;;;6218317;28;20053;-75
2020/12/10 14:25:59;;;;;;;18.48;13.07;;;5.00;77.70;;;;;;6247636;28;20240;-74
2020/12/10 14:29:00;;;;;;;21.50;13.27;;;5.00;77.80;;;;;;6237262;28;20103;-75
2020/12/10 14:32:02;;;;;;;22.63;14.60;;;5.00;78.00;;;;;;6235318;28;20065;-76
2020/12/10 14:35:04;;;;;;;21.33;13.98;;;5.00;77.90;;;;;;6229951;28;20050;-76
2020/12/10 14:38:09;;;;;;;20.23;13.10;;;5.00;78.10;;;;;;6222795;28;20121;-75
2020/12/10 14:41:15;;;;;;;22.63;14.70;;;5.00;78.00;;;;;;6222235;28;20046;-74
2020/12/10 14:44:17;;;;;;;25.38;16.50;;;5.00;78.00;;;;;;6227240;28;20496;-75
2020/12/10 14:47:18;;;;;;;20.73;13.18;;;5.00;78.20;;;;;;6214478;28;20117;-76
2020/12/10 14:50:21;;;;;;;19.65;14.43;;;5.00;78.20;;;;;;6218372;28;20145;-75
2020/12/10 14:53:22;;;;;;;20.38;13.23;;;5.00;78.20;;;;;;6218962;28;20043;-75
2020/12/10 14:56:24;;;;;;;21.02;14.38;;;5.00;78.20;;;;;;6213457;28;20050;-75
2020/12/10 14:59:25;;;;;;;17.48;11.80;;;5.00;78.40;;;;;;6214782;28;20041;-76
2020/12/10 15:02:26;;;;;;;21.98;16.98;;;5.00;78.70;;;;;;6215287;28;20511;-76
2020/12/10 15:05:28;;;;;;;26.08;21.95;;;4.90;78.70;;;;;;6215702;28;20119;-76
2020/12/10 15:08:30;;;;;;;18.58;13.13;;;4.90;78.60;;;;;;6214755;28;20050;-76
2020/12/10 15:11:31;;;;;;;19.48;15.85;;;4.90;78.60;;;;;;6215077;28;20053;-76
2020/12/10 15:14:32;;;;;;;20.52;12.65;;;4.90;78.70;;;;;;6215219;28;20531;-76
2020/12/10 15:17:34;;;;;;;25.08;15.20;;;4.90;78.70;;;;;;6212354;28;20385;-74
2020/12/10 15:20:36;;;;;;;22.73;12.88;;;4.90;78.70;;;;;;6216539;28;20088;-75
2020/12/10 15:23:37;;;;;;;22.33;12.40;;;4.90;78.50;;;;;;6216844;28;20054;-75
2020/12/10 15:26:39;;;;;;;20.45;11.43;;;4.90;78.50;;;;;;6221562;28;20531;-75
2020/12/10 15:29:40;;;;;;;29.90;14.57;;;4.90;78.60;;;;;;6212348;28;20060;-77
2020/12/10 15:32:42;;;;;;;21.02;12.15;;;4.90;78.50;;;;;;6218034;28;20045;-77
2020/12/10 15:35:44;;;;;;;15.15;10.43;;;4.90;78.60;;;;;;6219617;28;20155;-77
2020/12/10 15:38:46;;;;;;;16.42;11.02;;;4.90;78.50;;;;;;6222272;28;20042;-77
2020/12/10 15:41:47;;;;;;;17.25;11.48;;;4.90;78.30;;;;;;6217389;28;20095;-78
2020/12/10 15:44:48;;;;;;;22.00;11.52;;;4.80;78.90;;;;;;6218574;28;20066;-77